Time;durP1;ratioP1;P1;durP2;ratioP2;P2;SDS_P1;SDS_P2;PMS_P1;PMS_P2;Temp;Humidity;BMP_temperature;BMP_pressure;BME280_temperature;BME280_humidity;BME280_pressure;Samples;Min_cycle;Max_cycle;Signal;HPM_P1;HPM_P2
2023/01/22 00:01:12;;;;;;;20.70;13.82;;;-0.80;99.90;;;;;;5094537;28;20058;-45
2023/01/22 00:03:39;;;;;;;16.75;12.45;;;-0.90;99.90;;;;;;5074054;28;20323;-45
2023/01/22 00:06:05;;;;;;;19.08;13.60;;;-1.00;99.90;;;;;;5093802;28;20044;-46
2023/01/22 00:08:32;;;;;;;16.88;12.05;;;-1.10;99.90;;;;;;5076141;28;20051;-45
2023/01/22 00:10:58;;;;;;;18.23;12.88;;;-1.10;99.90;;;;;;5074442;28;20059;-47
2023/01/22 00:13:25;;;;;;;17.80;12.48;;;-1.20;99.90;;;;;;5094011;28;20138;-45
2023/01/22 00:15:51;;;;;;;19.42;12.10;;;-1.30;99.90;;;;;;5092862;28;20057;-46
2023/01/22 00:18:18;;;;;;;17.60;12.32;;;-1.30;99.90;;;;;;5094108;28;20139;-44
2023/01/22 00:20:48;;;;;;;21.48;13.48;;;-1.30;99.90;;;;;;5075465;28;20307;-45
2023/01/22 00:23:13;;;;;;;19.77;13.00;;;-1.10;99.90;;;;;;5093922;28;20043;-45
2023/01/22 00:25:39;;;;;;;18.75;12.20;;;-1.00;99.90;;;;;;5075472;28;20902;-50
2023/01/22 00:28:05;;;;;;;18.00;12.02;;;-1.00;99.90;;;;;;5094924;28;20490;-45
2023/01/22 00:30:31;;;;;;;17.50;12.05;;;-1.10;99.90;;;;;;5093592;28;20389;-47
2023/01/22 00:32:56;;;;;;;18.70;11.63;;;-1.20;99.90;;;;;;5093523;28;20494;-46
2023/01/22 00:35:22;;;;;;;17.55;12.15;;;-1.20;99.90;;;;;;5093007;28;20047;-45
2023/01/22 00:37:48;;;;;;;19.08;13.10;;;-1.30;99.90;;;;;;5094446;28;20051;-45
2023/01/22 00:40:15;;;;;;;17.35;13.07;;;-1.30;99.90;;;;;;5094393;28;20131;-46
2023/01/22 00:42:40;;;;;;;19.10;13.13;;;-1.40;99.90;;;;;;5093389;28;20047;-45
2023/01/22 00:45:06;;;;;;;20.58;13.25;;;-1.30;99.90;;;;;;5093560;28;20100;-46
2023/01/22 00:47:32;;;;;;;18.70;12.48;;;-1.30;99.90;;;;;;5077931;28;20127;-45
2023/01/22 00:49:58;;;;;;;19.95;13.05;;;-1.30;99.90;;;;;;5097777;28;20047;-48
2023/01/22 00:52:24;;;;;;;20.58;14.18;;;-1.30;99.90;;;;;;5097639;28;20066;-46
2023/01/22 00:54:49;;;;;;;18.42;12.85;;;-1.20;99.90;;;;;;5097479;28;20088;-49
2023/01/22 00:57:20;;;;;;;20.02;13.77;;;-1.10;99.90;;;;;;5074556;28;20040;-45
2023/01/22 00:59:46;;;;;;;19.10;13.15;;;-1.10;99.90;;;;;;5079816;28;20464;-45
2023/01/22 01:02:12;;;;;;;17.67;12.13;;;-1.20;99.90;;;;;;5097767;28;20049;-49
2023/01/22 01:04:37;;;;;;;19.98;13.13;;;-1.10;99.90;;;;;;5079463;28;20394;-45
2023/01/22 01:07:03;;;;;;;17.73;12.90;;;-1.10;99.90;;;;;;5097048;28;20253;-47
2023/01/22 01:09:29;;;;;;;18.08;12.60;;;-1.00;99.90;;;;;;5079826;28;20475;-48
2023/01/22 01:11:55;;;;;;;18.70;12.73;;;-0.90;99.90;;;;;;5096983;28;20131;-48
2023/01/22 01:14:20;;;;;;;17.23;12.80;;;-1.00;99.90;;;;;;5079537;28;20127;-49
2023/01/22 01:16:49;;;;;;;19.30;12.07;;;-1.20;99.90;;;;;;5095759;28;20083;-46
2023/01/22 01:19:16;;;;;;;17.83;12.45;;;-1.20;99.90;;;;;;5098113;28;20126;-46
2023/01/22 01:21:42;;;;;;;17.88;13.48;;;-1.30;99.90;;;;;;5095981;28;20509;-46
2023/01/22 01:24:09;;;;;;;16.27;11.68;;;-1.30;99.90;;;;;;5079083;28;20368;-46
2023/01/22 01:26:36;;;;;;;15.70;12.40;;;-1.30;99.90;;;;;;5097057;28;20073;-48
2023/01/22 01:29:05;;;;;;;16.88;12.93;;;-1.30;99.90;;;;;;5097203;28;20126;-46
2023/01/22 01:31:30;;;;;;;18.35;12.70;;;-1.40;99.90;;;;;;5097441;28;20116;-44
2023/01/22 01:33:57;;;;;;;20.23;12.15;;;-1.30;99.90;;;;;;5097483;28;20052;-45
2023/01/22 01:36:24;;;;;;;18.08;12.38;;;-1.40;99.90;;;;;;5096257;28;20150;-45
2023/01/22 01:38:50;;;;;;;17.70;11.43;;;-1.30;99.90;;;;;;5078549;28;20520;-49
2023/01/22 01:41:22;;;;;;;17.52;11.38;;;-1.40;99.90;;;;;;5096919;28;20039;-46
2023/01/22 01:44:18;;;;;;;14.98;11.52;;;-1.40;99.90;;;;;;5096417;28;20089;-47
2023/01/22 01:46:48;;;;;;;17.40;10.57;;;-1.40;99.90;;;;;;5032484;28;20132;-47
2023/01/22 01:49:28;;;;;;;16.00;10.57;;;-1.50;99.90;;;;;;5033371;28;20116;-47
2023/01/22 01:51:58;;;;;;;16.60;10.85;;;-1.50;99.90;;;;;;5029448;28;20057;-47
2023/01/22 01:54:25;;;;;;;16.58;10.85;;;-1.50;99.90;;;;;;5033326;28;20049;-45
2023/01/22 01:56:55;;;;;;;20.88;11.52;;;-1.50;99.90;;;;;;5031800;28;20466;-46
2023/01/22 01:59:22;;;;;;;18.15;11.55;;;-1.40;99.90;;;;;;5031791;28;20064;-44
2023/01/22 02:01:52;;;;;;;17.42;11.57;;;-1.50;99.90;;;;;;5032613;28;20060;-46
2023/01/22 02:04:18;;;;;;;19.05;11.50;;;-1.40;99.90;;;;;;5016331;28;20083;-48
2023/01/22 02:06:44;;;;;;;16.65;11.38;;;-1.50;99.90;;;;;;5031821;28;20053;-46
2023/01/22 02:09:10;;;;;;;16.50;10.73;;;-1.40;99.90;;;;;;5033002;28;20049;-45
2023/01/22 02:11:38;;;;;;;17.08;11.07;;;-1.50;99.90;;;;;;5031905;28;20049;-47
2023/01/22 02:14:11;;;;;;;20.35;12.05;;;-1.50;99.90;;;;;;5032934;28;20085;-47
2023/01/22 02:16:37;;;;;;;18.27;12.40;;;-1.50;99.90;;;;;;5011479;28;20089;-47
2023/01/22 02:19:02;;;;;;;17.90;11.77;;;-1.40;99.90;;;;;;5026112;28;20132;-45
2023/01/22 02:21:35;;;;;;;23.00;12.48;;;-1.30;99.90;;;;;;5031932;28;20055;-47
2023/01/22 02:24:03;;;;;;;20.98;12.85;;;-1.20;99.90;;;;;;5087916;28;20513;-45
2023/01/22 02:26:28;;;;;;;20.02;12.85;;;-1.10;99.90;;;;;;5095885;28;20053;-46
2023/01/22 02:28:54;;;;;;;18.75;11.88;;;-1.00;99.90;;;;;;5096287;28;20111;-46
2023/01/22 02:31:20;;;;;;;19.52;12.82;;;-1.10;99.90;;;;;;5077235;28;20044;-47
2023/01/22 02:33:45;;;;;;;22.10;12.85;;;-0.90;99.90;;;;;;5095648;28;20432;-45
2023/01/22 02:36:11;;;;;;;20.17;13.27;;;-1.00;99.90;;;;;;5095191;28;20052;-44
2023/01/22 02:38:37;;;;;;;23.58;13.45;;;-1.00;99.90;;;;;;5095095;28;20464;-47
2023/01/22 02:41:04;;;;;;;19.48;13.75;;;-0.90;99.90;;;;;;5095965;28;20043;-45
2023/01/22 02:43:29;;;;;;;19.63;11.70;;;-0.80;99.90;;;;;;5094515;28;20542;-46
2023/01/22 02:45:55;;;;;;;20.63;12.38;;;-0.80;99.90;;;;;;5094619;28;20051;-45
2023/01/22 02:48:21;;;;;;;22.55;13.48;;;-0.80;99.90;;;;;;5077599;28;20531;-46
2023/01/22 02:50:47;;;;;;;22.00;13.30;;;-0.80;99.90;;;;;;5096307;28;20453;-45
2023/01/22 02:53:12;;;;;;;23.35;13.85;;;-0.70;99.90;;;;;;5094759;28;20370;-44
2023/01/22 02:55:38;;;;;;;21.45;13.95;;;-0.70;99.90;;;;;;5095453;28;21101;-45
2023/01/22 02:58:04;;;;;;;23.25;14.85;;;-0.50;99.90;;;;;;5096247;28;20620;-47
2023/01/22 03:00:30;;;;;;;24.58;14.50;;;-0.60;99.90;;;;;;5091289;28;20048;-44
2023/01/22 03:02:56;;;;;;;24.25;13.93;;;-0.50;99.90;;;;;;5085380;28;20052;-45
2023/01/22 03:05:22;;;;;;;22.30;13.18;;;-0.40;99.90;;;;;;5094045;28;20048;-47
2023/01/22 03:07:49;;;;;;;21.95;13.30;;;-0.40;99.90;;;;;;5094452;28;20402;-45
2023/01/22 03:10:17;;;;;;;22.17;13.10;;;-0.50;99.90;;;;;;5095564;28;20043;-46
2023/01/22 03:21:17;;;;;;;23.35;15.07;;;-0.30;99.90;;;;;;5094667;28;20496;-45
2023/01/22 03:23:54;;;;;;;28.48;15.27;;;-0.30;99.90;;;;;;5094077;28;20138;-45
2023/01/22 03:26:21;;;;;;;18.48;13.05;;;-0.20;99.90;;;;;;5062593;28;20230;-45
2023/01/22 03:28:47;;;;;;;21.77;14.20;;;-0.30;99.90;;;;;;5094292;28;20044;-46
2023/01/22 03:31:14;;;;;;;21.88;14.05;;;-0.30;99.90;;;;;;5077039;28;20319;-45
2023/01/22 03:33:41;;;;;;;24.05;14.52;;;-0.30;99.90;;;;;;5093644;28;20096;-44
2023/01/22 03:36:10;;;;;;;26.13;14.65;;;-0.30;99.90;;;;;;5094092;28;20502;-45
2023/01/22 03:38:36;;;;;;;21.20;13.23;;;-0.30;99.90;;;;;;5094977;28;20051;-45
2023/01/22 03:41:10;;;;;;;21.42;13.45;;;-0.40;99.90;;;;;;5095022;28;20273;-48
2023/01/22 03:43:36;;;;;;;21.75;13.60;;;-0.30;99.90;;;;;;5075928;28;20119;-47
2023/01/22 03:46:09;;;;;;;21.33;13.85;;;-0.30;99.90;;;;;;5094144;28;20052;-45
2023/01/22 03:48:35;;;;;;;23.55;13.85;;;-0.40;99.90;;;;;;5094207;28;20896;-45
2023/01/22 03:51:09;;;;;;;24.52;13.95;;;-0.30;99.90;;;;;;5093845;28;20042;-45
2023/01/22 03:53:35;;;;;;;25.85;13.75;;;-0.40;99.90;;;;;;5075320;28;20108;-45
2023/01/22 03:56:04;;;;;;;21.15;12.90;;;-0.50;99.90;;;;;;5093737;28;20051;-46
2023/01/22 03:58:31;;;;;;;19.38;12.45;;;-0.50;99.90;;;;;;5094159;28;20093;-46
2023/01/22 04:01:00;;;;;;;23.48;13.38;;;-0.50;99.90;;;;;;5094673;28;20055;-47
2023/01/22 04:03:27;;;;;;;21.77;12.93;;;-0.40;99.90;;;;;;5094056;28;20138;-46
2023/01/22 04:05:53;;;;;;;23.05;13.20;;;-0.40;99.90;;;;;;5094046;28;20051;-45
2023/01/22 04:08:20;;;;;;;22.98;12.48;;;-0.50;99.90;;;;;;5094164;28;20036;-45
2023/01/22 04:10:46;;;;;;;20.90;13.10;;;-0.40;99.90;;;;;;5093904;28;20200;-48
2023/01/22 04:13:12;;;;;;;19.25;12.40;;;-0.40;99.90;;;;;;5093164;28;20059;-45
2023/01/22 04:15:37;;;;;;;22.23;12.13;;;-0.30;99.90;;;;;;5093564;28;20799;-44
2023/01/22 04:18:03;;;;;;;21.35;12.50;;;-0.20;99.90;;;;;;5094045;28;20051;-47
2023/01/22 04:20:29;;;;;;;23.77;13.30;;;-0.20;99.90;;;;;;5094065;28;20890;-45
2023/01/22 04:22:54;;;;;;;21.38;13.00;;;-0.20;99.90;;;;;;5096830;28;20073;-45
2023/01/22 04:25:20;;;;;;;22.08;12.18;;;0.00;99.90;;;;;;5097148;28;20753;-45
2023/01/22 04:27:46;;;;;;;18.75;12.65;;;0.00;99.90;;;;;;5097874;28;20107;-47
2023/01/22 04:30:12;;;;;;;23.10;12.43;;;0.00;99.90;;;;;;5079535;28;20110;-47
2023/01/22 04:32:37;;;;;;;18.17;11.70;;;-0.10;99.90;;;;;;5078912;28;20449;-45
2023/01/22 04:35:03;;;;;;;19.98;10.80;;;0.00;99.90;;;;;;5097676;28;20055;-45
2023/01/22 04:37:30;;;;;;;18.77;11.45;;;0.10;99.90;;;;;;5097683;28;20055;-46
2023/01/22 04:39:56;;;;;;;16.60;10.18;;;0.20;99.90;;;;;;5098339;28;20122;-45
2023/01/22 04:42:21;;;;;;;17.83;10.40;;;0.20;99.90;;;;;;5097216;28;20135;-47
2023/01/22 04:44:47;;;;;;;16.27;10.43;;;0.20;99.90;;;;;;5097706;28;20052;-46
2023/01/22 04:47:13;;;;;;;17.25;9.52;;;0.20;99.90;;;;;;5098234;28;20055;-44
2023/01/22 04:49:39;;;;;;;14.27;9.57;;;0.20;99.90;;;;;;5098454;28;20059;-44
2023/01/22 04:52:04;;;;;;;15.40;9.10;;;0.20;99.90;;;;;;5097225;28;20032;-48
2023/01/22 04:54:30;;;;;;;16.88;9.25;;;0.30;99.90;;;;;;5097933;28;20101;-45
2023/01/22 04:56:56;;;;;;;15.55;9.05;;;0.30;99.90;;;;;;5097724;28;20417;-44
2023/01/22 04:59:21;;;;;;;11.38;7.57;;;0.40;99.90;;;;;;5098148;28;20051;-44
2023/01/22 05:01:49;;;;;;;13.18;8.07;;;0.40;99.90;;;;;;5087270;28;20043;-46
2023/01/22 05:04:16;;;;;;;11.75;7.70;;;0.40;99.90;;;;;;5097389;28;20043;-47
2023/01/22 05:06:41;;;;;;;12.68;8.10;;;0.40;99.90;;;;;;5095777;28;20039;-44
2023/01/22 05:09:07;;;;;;;10.70;7.07;;;0.40;99.90;;;;;;5098874;28;20108;-49
2023/01/22 05:11:33;;;;;;;10.35;7.05;;;0.40;99.90;;;;;;5097432;28;20101;-45
2023/01/22 05:13:58;;;;;;;10.52;7.00;;;0.50;99.90;;;;;;5079649;28;20047;-49
2023/01/22 05:16:24;;;;;;;10.82;7.00;;;0.50;99.90;;;;;;5096994;28;20048;-45
2023/01/22 05:18:50;;;;;;;12.50;6.45;;;0.50;99.90;;;;;;5079467;28;20104;-45
2023/01/22 05:21:15;;;;;;;12.10;6.60;;;0.50;99.90;;;;;;5096704;28;20700;-45
2023/01/22 05:23:42;;;;;;;11.02;7.07;;;0.50;99.90;;;;;;5079386;28;20557;-45
2023/01/22 05:26:08;;;;;;;10.20;6.30;;;0.50;99.90;;;;;;5096173;28;20326;-46
2023/01/22 05:28:34;;;;;;;11.23;6.63;;;0.50;99.90;;;;;;5097066;28;20160;-45
2023/01/22 05:31:00;;;;;;;11.18;6.28;;;0.50;99.90;;;;;;5096792;28;20114;-45
2023/01/22 05:33:28;;;;;;;10.63;7.05;;;0.50;99.90;;;;;;5096187;28;20046;-45
2023/01/22 05:35:58;;;;;;;12.75;6.47;;;0.50;99.90;;;;;;5095834;28;20047;-45
2023/01/22 05:38:24;;;;;;;10.15;6.85;;;0.50;99.90;;;;;;5096899;28;20498;-45
2023/01/22 05:40:50;;;;;;;10.93;7.47;;;0.50;99.90;;;;;;5096319;28;20543;-46
2023/01/22 05:43:16;;;;;;;11.25;7.47;;;0.60;99.90;;;;;;5096397;28;20044;-45
2023/01/22 05:45:42;;;;;;;10.30;6.85;;;0.50;99.90;;;;;;5096011;28;20303;-45
2023/01/22 05:48:08;;;;;;;13.40;7.07;;;0.50;99.90;;;;;;5096998;28;20050;-46
2023/01/22 05:50:33;;;;;;;12.18;7.20;;;0.60;99.90;;;;;;5078170;28;20451;-46
2023/01/22 05:52:59;;;;;;;10.10;7.18;;;0.60;99.90;;;;;;5096631;28;20654;-46
2023/01/22 05:55:25;;;;;;;9.98;6.80;;;0.60;99.90;;;;;;5096353;28;20059;-47
2023/01/22 05:57:50;;;;;;;8.57;6.68;;;0.60;99.90;;;;;;5096398;28;20100;-45
2023/01/22 06:00:16;;;;;;;13.30;7.25;;;0.60;99.90;;;;;;5097571;28;20405;-44
2023/01/22 06:02:42;;;;;;;11.30;7.88;;;0.70;99.90;;;;;;5096204;28;20140;-45
2023/01/22 06:05:08;;;;;;;12.52;7.10;;;0.70;99.90;;;;;;5096389;28;20052;-45
2023/01/22 06:07:34;;;;;;;9.85;6.78;;;0.70;99.90;;;;;;5096786;28;20063;-45
2023/01/22 06:09:59;;;;;;;7.63;6.32;;;0.70;99.90;;;;;;5096677;28;20439;-47
2023/01/22 06:12:25;;;;;;;10.48;6.57;;;0.80;99.90;;;;;;5095546;28;20409;-48
2023/01/22 06:14:53;;;;;;;8.18;5.88;;;0.80;99.90;;;;;;5095776;28;20043;-47
2023/01/22 06:17:19;;;;;;;10.05;6.95;;;0.80;99.90;;;;;;5096158;28;20159;-49
2023/01/22 06:19:44;;;;;;;10.80;6.00;;;0.70;99.90;;;;;;5077913;28;20508;-46
2023/01/22 06:22:10;;;;;;;8.93;5.85;;;0.80;99.90;;;;;;5096593;28;20052;-44
2023/01/22 06:24:35;;;;;;;11.00;6.50;;;0.80;99.90;;;;;;5096114;28;20048;-47
2023/01/22 06:27:02;;;;;;;11.50;7.32;;;0.80;99.90;;;;;;5090803;28;20489;-44
2023/01/22 06:29:28;;;;;;;10.60;7.20;;;0.80;99.90;;;;;;5044482;28;20048;-48
2023/01/22 06:31:54;;;;;;;18.20;7.07;;;0.80;99.90;;;;;;5095500;28;20036;-45
2023/01/22 06:34:20;;;;;;;10.13;6.57;;;0.70;99.90;;;;;;5096008;28;20055;-47
2023/01/22 06:36:45;;;;;;;7.57;5.90;;;0.80;99.90;;;;;;5077479;28;20394;-46
2023/01/22 06:39:11;;;;;;;10.55;6.22;;;0.80;99.90;;;;;;5095927;28;20047;-44
2023/01/22 06:41:37;;;;;;;11.05;6.53;;;0.80;99.90;;;;;;5095397;28;20054;-45
2023/01/22 06:44:02;;;;;;;10.00;6.65;;;0.80;99.90;;;;;;5094823;28;20400;-45
2023/01/22 06:46:28;;;;;;;8.82;6.03;;;0.80;99.90;;;;;;5095460;28;20138;-49
2023/01/22 06:48:54;;;;;;;9.57;6.28;;;0.80;99.90;;;;;;5095890;28;20160;-46
2023/01/22 06:51:20;;;;;;;10.25;5.95;;;0.70;99.90;;;;;;5094563;28;20476;-46
2023/01/22 06:53:45;;;;;;;10.07;6.22;;;0.80;99.90;;;;;;5095865;28;20418;-46
2023/01/22 06:56:11;;;;;;;8.75;5.70;;;0.80;99.90;;;;;;5094955;28;20458;-48
2023/01/22 06:58:37;;;;;;;7.53;5.78;;;0.80;99.90;;;;;;5077100;28;20051;-45
2023/01/22 07:01:04;;;;;;;8.48;5.82;;;0.90;99.90;;;;;;5094919;28;20039;-45
2023/01/22 07:03:30;;;;;;;11.93;6.65;;;0.90;99.90;;;;;;5060140;28;20482;-47
2023/01/22 07:06:01;;;;;;;8.82;5.72;;;0.90;99.90;;;;;;5094780;28;20117;-45
2023/01/22 07:08:28;;;;;;;13.45;5.30;;;0.90;99.90;;;;;;5095357;28;20058;-45
2023/01/22 07:10:54;;;;;;;11.95;5.22;;;0.90;99.90;;;;;;5094529;28;20157;-47
2023/01/22 07:13:20;;;;;;;11.45;5.13;;;0.90;99.90;;;;;;5094450;28;20075;-47
2023/01/22 07:15:46;;;;;;;5.78;5.18;;;0.90;99.90;;;;;;5094479;28;20855;-47
2023/01/22 07:18:13;;;;;;;6.93;4.80;;;1.00;99.90;;;;;;5094634;28;20284;-47
2023/01/22 07:20:40;;;;;;;8.18;5.63;;;1.00;99.90;;;;;;5094760;28;20468;-49
2023/01/22 07:23:06;;;;;;;6.82;4.93;;;1.00;99.90;;;;;;5094579;28;20051;-45
2023/01/22 07:25:32;;;;;;;9.10;5.13;;;0.90;99.90;;;;;;5094025;28;20101;-49
2023/01/22 07:27:59;;;;;;;6.35;4.75;;;1.00;99.90;;;;;;5094438;28;20047;-49
2023/01/22 07:30:25;;;;;;;6.50;4.65;;;0.90;99.90;;;;;;5095024;28;20059;-49
2023/01/22 07:32:50;;;;;;;6.47;4.88;;;0.90;99.90;;;;;;5093702;28;20071;-48
2023/01/22 07:35:16;;;;;;;14.18;5.40;;;0.90;99.90;;;;;;5094237;28;20168;-46
2023/01/22 07:37:42;;;;;;;8.40;5.18;;;0.90;99.90;;;;;;5094155;28;20040;-46
2023/01/22 07:40:08;;;;;;;12.70;4.80;;;0.90;99.90;;;;;;5076472;28;20059;-46
2023/01/22 07:42:36;;;;;;;6.70;5.30;;;0.90;99.90;;;;;;5094572;28;20048;-46
2023/01/22 07:45:01;;;;;;;6.47;4.68;;;0.90;99.90;;;;;;5092967;28;20118;-47
2023/01/22 07:47:27;;;;;;;8.80;5.28;;;1.00;99.90;;;;;;5094592;28;20039;-47
2023/01/22 07:49:53;;;;;;;9.07;5.20;;;0.90;99.90;;;;;;5075661;28;20561;-47
2023/01/22 07:52:18;;;;;;;6.85;4.90;;;0.90;99.90;;;;;;5093327;28;20523;-48
2023/01/22 07:54:44;;;;;;;10.10;5.03;;;0.90;99.90;;;;;;5093952;28;20154;-48
2023/01/22 07:57:14;;;;;;;7.85;4.80;;;0.90;99.90;;;;;;5093724;28;20047;-46
2023/01/22 07:59:40;;;;;;;9.45;5.13;;;0.90;99.90;;;;;;5094142;28;20094;-47
2023/01/22 08:02:09;;;;;;;9.52;5.13;;;0.90;99.90;;;;;;5080188;28;20450;-48
2023/01/22 08:04:34;;;;;;;10.40;5.45;;;0.90;99.90;;;;;;5093505;28;20378;-48
2023/01/22 08:07:00;;;;;;;8.00;4.80;;;0.90;99.90;;;;;;5094392;28;20052;-46
2023/01/22 08:09:26;;;;;;;8.10;5.13;;;0.90;99.90;;;;;;5094491;28;20036;-45
2023/01/22 08:11:52;;;;;;;10.43;5.22;;;0.90;99.90;;;;;;5092647;28;20039;-45
2023/01/22 08:14:18;;;;;;;8.88;5.90;;;0.90;99.90;;;;;;5093719;28;20043;-48
2023/01/22 08:16:44;;;;;;;8.60;5.00;;;0.90;99.90;;;;;;5074593;28;20495;-47
2023/01/22 08:19:10;;;;;;;8.02;5.97;;;0.90;99.90;;;;;;5093526;28;20430;-48
2023/01/22 08:21:35;;;;;;;9.73;6.05;;;0.90;99.90;;;;;;5074371;28;20070;-45
2023/01/22 08:24:01;;;;;;;15.20;7.00;;;0.90;99.90;;;;;;5092808;28;20104;-45
2023/01/22 08:26:26;;;;;;;8.60;6.28;;;0.90;99.90;;;;;;5093102;28;20047;-45
2023/01/22 08:28:52;;;;;;;12.35;5.47;;;0.90;99.90;;;;;;5093459;28;21070;-45
2023/01/22 08:31:18;;;;;;;9.63;5.85;;;0.90;99.90;;;;;;5074721;28;20583;-49
2023/01/22 08:33:43;;;;;;;7.85;6.28;;;0.90;99.90;;;;;;5075753;28;20517;-46
2023/01/22 08:36:09;;;;;;;11.18;6.60;;;0.90;99.90;;;;;;5093719;28;20325;-46
2023/01/22 08:38:35;;;;;;;8.18;6.10;;;0.90;99.90;;;;;;5094560;28;20594;-47
2023/01/22 08:41:00;;;;;;;10.30;6.00;;;0.90;99.90;;;;;;5093931;28;20051;-44
2023/01/22 08:43:26;;;;;;;10.68;6.43;;;0.90;99.90;;;;;;5093818;28;20044;-46
2023/01/22 08:45:52;;;;;;;8.38;6.32;;;0.90;99.90;;;;;;5093289;28;20123;-47
2023/01/22 08:48:18;;;;;;;9.90;6.10;;;0.90;99.90;;;;;;5095047;28;20170;-47
2023/01/22 08:50:43;;;;;;;10.20;6.65;;;1.00;99.90;;;;;;5093507;28;20183;-45
2023/01/22 08:53:09;;;;;;;11.55;7.50;;;0.90;99.90;;;;;;5094599;28;20236;-48
2023/01/22 08:55:35;;;;;;;9.77;7.22;;;1.00;99.90;;;;;;5080372;28;20050;-52
2023/01/22 08:58:00;;;;;;;10.77;6.75;;;0.90;99.90;;;;;;5094468;28;20488;-47
2023/01/22 09:00:26;;;;;;;11.15;7.63;;;1.00;99.90;;;;;;5094284;28;20473;-45
2023/01/22 09:02:56;;;;;;;11.27;6.85;;;0.90;99.90;;;;;;5093911;28;20148;-46
2023/01/22 09:05:21;;;;;;;11.63;6.57;;;0.90;99.90;;;;;;5093552;28;20059;-45
2023/01/22 09:07:47;;;;;;;13.18;7.28;;;1.00;99.90;;;;;;5096742;28;20527;-45
2023/01/22 09:10:13;;;;;;;12.80;8.10;;;0.90;99.90;;;;;;5098477;28;20050;-46
2023/01/22 09:12:39;;;;;;;13.20;8.43;;;0.90;99.90;;;;;;5096372;28;20052;-45
2023/01/22 09:15:06;;;;;;;12.05;8.20;;;1.00;99.90;;;;;;5096989;28;20139;-46
2023/01/22 09:17:32;;;;;;;9.40;7.30;;;1.00;99.90;;;;;;5096177;28;20876;-45
2023/01/22 09:19:58;;;;;;;9.93;7.68;;;1.00;99.90;;;;;;5095503;28;20039;-46
2023/01/22 09:22:23;;;;;;;13.85;6.78;;;0.90;99.90;;;;;;5094743;28;20497;-45
2023/01/22 09:24:49;;;;;;;12.13;8.70;;;0.90;99.90;;;;;;5096770;28;20093;-46
2023/01/22 09:27:15;;;;;;;11.73;8.48;;;0.90;99.90;;;;;;5097735;28;20048;-46
2023/01/22 09:29:41;;;;;;;9.48;8.27;;;0.90;99.90;;;;;;5097596;28;20588;-46
2023/01/22 09:32:07;;;;;;;10.88;8.30;;;0.80;99.90;;;;;;5095693;28;20060;-45
2023/01/22 09:34:33;;;;;;;12.60;8.65;;;0.80;99.90;;;;;;5096208;28;20485;-46
2023/01/22 09:37:01;;;;;;;14.45;7.95;;;0.80;99.90;;;;;;5096583;28;20184;-49
2023/01/22 09:39:27;;;;;;;12.23;7.38;;;0.80;99.90;;;;;;5078503;28;20474;-46
2023/01/22 09:41:55;;;;;;;12.10;7.57;;;0.80;99.90;;;;;;5096616;28;20151;-46
2023/01/22 09:44:30;;;;;;;12.18;8.15;;;0.90;99.90;;;;;;5078401;28;20051;-45
2023/01/22 09:47:02;;;;;;;10.13;8.25;;;0.90;99.90;;;;;;5096627;28;20043;-47
2023/01/22 09:49:39;;;;;;;9.57;7.93;;;1.00;99.90;;;;;;5097416;28;20553;-46
2023/01/22 09:52:05;;;;;;;9.27;7.50;;;1.00;99.90;;;;;;5096378;28;20082;-45
2023/01/22 09:54:32;;;;;;;9.75;8.15;;;1.00;99.90;;;;;;5096159;28;20075;-47
2023/01/22 09:57:03;;;;;;;11.80;8.40;;;1.00;99.90;;;;;;5077968;28;20043;-45
2023/01/22 09:59:45;;;;;;;10.05;8.95;;;1.00;99.90;;;;;;5096405;28;20043;-47
2023/01/22 10:02:23;;;;;;;9.85;8.55;;;1.00;99.90;;;;;;5077259;28;20136;-45
2023/01/22 10:04:52;;;;;;;9.20;7.53;;;1.10;99.90;;;;;;5096004;28;20054;-47
2023/01/22 10:07:40;;;;;;;8.55;7.55;;;1.10;99.90;;;;;;5096428;28;20545;-49
2023/01/22 10:10:27;;;;;;;8.30;7.40;;;1.10;99.90;;;;;;5095883;28;20048;-47
2023/01/22 10:13:14;;;;;;;10.65;8.10;;;1.10;99.90;;;;;;5095357;28;20047;-46
2023/01/22 10:15:41;;;;;;;10.75;8.18;;;1.10;99.90;;;;;;5095143;28;20454;-46
2023/01/22 10:18:26;;;;;;;11.52;8.65;;;1.10;99.90;;;;;;5096072;28;20493;-46
2023/01/22 10:20:54;;;;;;;10.23;7.53;;;1.00;99.90;;;;;;5095442;28;20124;-46
2023/01/22 10:23:22;;;;;;;11.05;7.93;;;1.10;99.90;;;;;;5096674;28;20439;-45
2023/01/22 10:25:48;;;;;;;9.93;7.78;;;1.10;99.90;;;;;;5095528;28;20905;-52
2023/01/22 10:28:21;;;;;;;9.23;7.47;;;1.10;99.90;;;;;;5077678;28;20105;-47
2023/01/22 10:30:48;;;;;;;12.10;8.10;;;1.10;99.90;;;;;;5094935;28;20051;-46
2023/01/22 10:33:17;;;;;;;8.98;7.78;;;1.00;99.90;;;;;;5096126;28;20094;-46
2023/01/22 10:35:46;;;;;;;8.68;7.25;;;1.10;99.90;;;;;;5060487;28;20047;-46
2023/01/22 10:38:30;;;;;;;16.83;8.27;;;1.20;99.90;;;;;;5078213;28;20135;-46
2023/01/22 10:40:59;;;;;;;9.10;7.13;;;1.30;99.90;;;;;;5081645;28;20043;-47
2023/01/22 10:43:36;;;;;;;9.55;7.07;;;1.30;99.90;;;;;;5077314;28;20580;-47
2023/01/22 10:46:21;;;;;;;11.68;9.13;;;1.30;99.90;;;;;;5094961;28;20117;-46
2023/01/22 10:49:01;;;;;;;12.25;7.88;;;1.40;99.90;;;;;;5095229;28;20044;-48
2023/01/22 10:51:38;;;;;;;10.30;7.38;;;1.30;99.90;;;;;;5076295;28;20125;-45
2023/01/22 10:54:17;;;;;;;9.95;8.10;;;1.40;99.90;;;;;;5095843;28;20405;-47
2023/01/22 10:56:44;;;;;;;11.27;8.98;;;1.40;99.90;;;;;;5095745;28;20047;-46
2023/01/22 10:59:36;;;;;;;11.95;8.63;;;1.50;99.90;;;;;;5095838;28;20047;-46
2023/01/22 11:02:12;;;;;;;12.10;8.35;;;1.50;99.90;;;;;;5090236;28;20449;-45
2023/01/22 11:04:38;;;;;;;12.82;8.50;;;1.50;99.90;;;;;;5094913;28;20054;-47
2023/01/22 11:07:07;;;;;;;11.88;7.68;;;1.50;99.90;;;;;;5095430;28;20409;-45
2023/01/22 11:10:01;;;;;;;11.65;9.25;;;1.50;99.90;;;;;;5095077;28;20122;-45
2023/01/22 11:12:34;;;;;;;11.13;8.73;;;1.60;99.90;;;;;;5011242;28;20872;-45
2023/01/22 11:15:24;;;;;;;10.88;9.00;;;1.60;99.90;;;;;;5011255;28;20067;-46
2023/01/22 11:17:54;;;;;;;10.85;8.85;;;1.70;99.90;;;;;;5001514;28;20063;-47
2023/01/22 11:20:36;;;;;;;11.05;8.68;;;1.60;99.90;;;;;;5012154;28;20049;-45
2023/01/22 11:23:08;;;;;;;11.10;9.30;;;1.70;99.90;;;;;;5011905;28;20057;-46
2023/01/22 11:26:15;;;;;;;13.55;9.25;;;1.70;99.90;;;;;;5011360;28;20053;-46
2023/01/22 11:29:07;;;;;;;12.93;9.00;;;1.80;99.90;;;;;;4999533;28;20229;-45
2023/01/22 11:31:51;;;;;;;12.48;9.32;;;1.90;99.90;;;;;;5001337;28;20492;-46
2023/01/22 11:34:32;;;;;;;14.65;10.10;;;1.90;99.90;;;;;;5011843;28;20560;-45
2023/01/22 11:36:57;;;;;;;11.88;9.40;;;1.90;99.90;;;;;;5011874;28;20063;-46
2023/01/22 11:39:29;;;;;;;10.50;9.02;;;1.80;99.90;;;;;;4995741;28;20053;-46
2023/01/22 11:42:12;;;;;;;12.95;9.13;;;1.80;99.90;;;;;;4994010;28;20541;-45
2023/01/22 11:44:59;;;;;;;13.07;8.95;;;1.80;99.90;;;;;;5011165;28;20059;-46
2023/01/22 11:47:43;;;;;;;10.40;8.38;;;1.80;99.90;;;;;;5011850;28;20567;-46
2023/01/22 11:50:25;;;;;;;12.02;8.68;;;1.80;99.90;;;;;;5082144;28;20067;-45
2023/01/22 11:53:01;;;;;;;12.80;9.85;;;1.90;99.90;;;;;;5094614;28;20039;-46
2023/01/22 11:56:12;;;;;;;10.52;8.77;;;1.90;99.90;;;;;;5094354;28;20463;-45
2023/01/22 11:58:49;;;;;;;13.25;9.40;;;1.90;99.90;;;;;;5011054;28;20061;-46
2023/01/22 12:01:49;;;;;;;10.10;8.50;;;2.00;99.90;;;;;;5011009;28;20474;-46
2023/01/22 12:04:41;;;;;;;9.68;7.70;;;2.00;99.90;;;;;;4971532;28;20066;-47
2023/01/22 12:07:06;;;;;;;13.50;8.70;;;2.00;99.90;;;;;;4914606;29;20590;-46
2023/01/22 12:09:57;;;;;;;11.95;9.15;;;2.00;99.90;;;;;;4913891;29;20338;-45
2023/01/22 12:12:26;;;;;;;11.35;9.20;;;2.00;99.90;;;;;;4913480;29;20071;-45
2023/01/22 12:15:03;;;;;;;11.68;9.13;;;2.00;99.90;;;;;;4897870;29;20206;-48
2023/01/22 12:17:42;;;;;;;17.52;9.50;;;2.00;99.90;;;;;;4904429;29;20064;-50
2023/01/22 12:20:22;;;;;;;11.05;9.18;;;2.00;99.90;;;;;;4906618;29;20337;-47
2023/01/22 12:23:19;;;;;;;12.82;9.50;;;2.00;99.90;;;;;;4894978;29;20212;-49
2023/01/22 12:26:04;;;;;;;13.07;9.27;;;2.00;99.90;;;;;;4897127;29;20079;-47
2023/01/22 12:28:49;;;;;;;11.55;8.48;;;2.10;99.90;;;;;;4899014;29;20068;-46
2023/01/22 12:31:37;;;;;;;11.95;7.95;;;2.10;99.90;;;;;;4891577;29;20071;-51
2023/01/22 12:34:11;;;;;;;12.32;8.38;;;2.20;99.90;;;;;;4881470;29;20063;-46
2023/01/22 12:36:39;;;;;;;12.90;8.88;;;2.20;99.90;;;;;;4951666;28;20409;-46
2023/01/22 12:39:19;;;;;;;10.02;8.68;;;2.20;99.90;;;;;;4952070;28;20055;-45
2023/01/22 12:42:08;;;;;;;10.85;8.52;;;2.30;99.90;;;;;;4995619;28;20066;-47
2023/01/22 12:44:36;;;;;;;11.98;9.00;;;2.30;99.90;;;;;;5060137;28;20138;-46
2023/01/22 12:47:19;;;;;;;11.93;8.70;;;2.40;99.90;;;;;;5098232;28;20482;-45
2023/01/22 12:49:47;;;;;;;14.20;8.38;;;2.40;99.90;;;;;;5098943;28;20058;-46
2023/01/22 12:52:33;;;;;;;12.02;8.52;;;2.40;99.90;;;;;;5097744;28;20055;-46
2023/01/22 12:55:00;;;;;;;12.32;8.75;;;2.40;99.90;;;;;;5098243;28;20055;-46
2023/01/22 12:57:39;;;;;;;13.40;9.15;;;2.40;99.90;;;;;;5099042;28;20421;-46
2023/01/22 13:00:26;;;;;;;13.43;10.88;;;2.40;99.90;;;;;;5079814;28;20079;-45